Latest Coastal Weather Observations for Tasman Island

IDT60701

Issued at 4:25 pm EDT Thursday 23 October 2014 (issued every 10 minutes, with the page automatically refreshed every 10 minutes)

About coastal observations | Map of coastal stations | Coastal observations for TAS | Marine services | Other Formats
Station Details ID: 094155 Name: TASMAN ISLAND Lat: -43.24 Lon: 148.00 Height: 240.0 m
Data from the previous 72 hours. | See also: Recent months at Tasman Island
Date/Time
EDT
Temp

°C
Wind Pressure Rain
since 9am
mm
Weather Cloud Vis
km
Sea
Height
m
Swell
Dir
 
Speed
knots
Gust
knots
hPa Trend Height
m
Period
s
Dir
23/04:00pm 10.2 E 4 11 1025.7 - 0.0 - - - - - - -
23/03:30pm 11.3 E 3 10 1025.6 - 0.0 - - - - - - -
23/03:00pm 11.6 E 5 10 1025.5 - 0.0 - - - - - - -
23/02:30pm 11.9 ESE 5 11 1025.8 - 0.0 - - - - - - -
23/02:00pm 11.1 ESE 6 11 1025.9 - 0.0 - - - - - - -
23/01:30pm 12.0 ESE 5 11 1026.0 - 0.0 - - - - - - -
23/01:00pm 11.6 E 6 12 1025.9 - 0.0 - - - - - - -
23/12:30pm 11.4 SE 5 10 1026.3 - 0.0 - - - - - - -
23/12:00pm 10.8 SE 5 9 1026.6 - 0.0 - - - - - - -
23/11:30am 10.9 SSE 5 11 1026.6 - 0.0 - - - - - - -
23/11:00am 11.1 SSE 5 9 1026.6 - 0.0 - - - - - - -
23/10:30am 10.1 SSE 6 10 1026.5 - 0.0 - - - - - - -
23/10:00am 10.1 SSE 9 13 1026.4 - 0.0 - - - - - - -
23/09:30am 10.0 S 6 12 1026.3 - 0.0 - - - - - - -
23/09:00am 9.6 S 8 14 1025.8 - 0.0 - - - - - - -
23/08:30am 9.2 S 8 16 1025.6 - 0.0 - - - - - - -
23/08:00am 8.9 S 8 13 1025.3 - 0.0 - - - - - - -
23/07:30am 9.0 S 8 13 1024.7 - 0.0 - - - - - - -
23/07:00am 8.8 S 9 14 1024.2 - 0.0 - - - - - - -
23/06:30am 8.2 S 11 17 1023.7 - 0.0 - - - - - - -
23/06:00am 8.5 SSW 13 19 1023.3 - 0.0 - - - - - - -
23/05:30am 8.5 SSW 13 20 1022.7 - 0.0 - - - - - - -
23/05:00am 8.8 SSW 17 24 1022.1 - 0.0 - - - - - - -
23/04:30am 9.1 SSW 15 22 1021.8 - 0.0 - - - - - - -
23/04:00am 8.9 SSW 16 24 1021.6 - 0.0 - - - - - - -
23/03:30am 8.8 SSW 16 25 1021.5 - 0.0 - - - - - - -
23/03:00am 9.3 SSW 16 23 1021.6 - 0.0 - - - - - - -
23/02:52am 9.3 SSW 18 28 1021.6 - 0.0 - - - - - - -
23/02:30am 9.4 SSW 18 27 1021.2 - 0.0 - - - - - - -
23/02:06am 9.2 SSW 18 31 1021.1 - 0.0 - - - - - - -
23/02:00am 9.4 SSW 17 25 1021.2 - 0.0 - - - - - - -
23/01:30am 9.2 SSW 18 28 1021.0 - 0.0 - - - - - - -
23/01:00am 9.5 SSW 19 29 1020.9 - 0.0 - - - - - - -
23/12:32am 9.8 SSW 19 29 1020.6 - 0.0 - - - - - - -
23/12:30am 9.8 SSW 20 29 1020.6 - 0.0 - - - - - - -
23/12:09am 10.5 SSW 21 32 1019.9 - 0.0 - - - - - - -
23/12:00am 10.8 SW 23 31 1019.9 - 0.0 - - - - - - -
 
Date/Time
EDT
Temp

°C
Wind Pressure Rain
since 9am
mm
Weather Cloud Vis
km
Sea
Height
m
Swell
Dir
 
Speed
knots
Gust
knots
hPa Trend Height
m
Period
s
Dir
22/11:32pm 10.9 SW 24 34 1019.4 - 0.0 - - - - - - -
22/11:30pm 10.9 SW 23 31 1019.4 - 0.0 - - - - - - -
22/11:00pm 11.0 SW 22 33 1019.3 - 0.0 - - - - - - -
22/10:39pm 11.1 SW 17 29 1019.0 - 0.0 - - - - - - -
22/10:30pm 11.2 SW 18 28 1019.3 - 0.0 - - - - - - -
22/10:02pm 11.2 SSW 18 30 1018.6 - 0.0 - - - - - - -
22/10:00pm 11.2 SW 18 27 1018.6 - 0.0 - - - - - - -
22/09:30pm 11.4 SW 18 23 1018.7 - 0.0 - - - - - - -
22/09:15pm 11.4 SW 16 27 1018.6 - 0.0 - - - - - - -
22/09:00pm 11.6 SW 21 30 1018.3 - 0.0 - - - - - - -
22/08:30pm 11.8 SSW 18 29 1017.8 - 0.0 - - - - - - -
22/08:19pm 11.8 SSW 15 28 1017.7 - 0.0 - - - - - - -
22/08:00pm 12.0 SSW 13 23 1017.5 - 0.0 - - - - - - -
22/07:30pm 12.3 SSW 19 27 1016.6 - 0.0 - - - - - - -
22/07:00pm 13.1 SSW 15 24 1016.2 - 0.0 - - - - - - -
22/06:30pm 16.4 WSW 3 6 1015.7 - 0.0 - - - - - - -
22/06:00pm 16.8 ENE 2 5 1015.0 - 0.0 - - - - - - -
22/05:30pm 17.4 ENE 3 5 1015.0 - 0.0 - - - - - - -
22/05:00pm 17.1 NE 7 11 1014.7 - 0.0 - - - - - - -
22/04:30pm 16.3 NE 8 10 1014.9 - 0.0 - - - - - - -
22/04:00pm 16.4 NNE 9 12 1015.0 - 0.0 - - - - - - -
22/03:30pm 19.0 NE 4 6 1015.3 - 0.0 - - - - - - -
22/03:00pm 16.7 NNE 7 9 1015.1 - 0.0 - - - - - - -
22/02:30pm 18.1 NE 7 10 1015.0 - 0.0 - - - - - - -
22/02:00pm 16.6 NNE 9 13 1015.7 - 0.0 - - - - - - -
22/01:30pm 16.8 NNE 10 15 1016.1 - 0.0 - - - - - - -
22/01:00pm 17.0 N 9 12 1016.2 - 0.0 - - - - - - -
22/12:30pm 15.9 NNE 11 17 1016.5 - 0.0 - - - - - - -
22/12:00pm 15.1 NNE 11 17 1016.9 - 0.0 - - - - - - -
22/11:30am 15.2 N 11 15 1017.5 - 0.0 - - - - - - -
22/11:00am 14.4 NNE 12 17 1017.8 - 0.0 - - - - - - -
22/10:30am 12.7 N 14 22 1018.5 - 0.0 - - - - - - -
22/10:00am 12.3 N 15 23 1018.4 - 0.0 - - - - - - -
22/09:38am 13.1 N 18 28 1018.5 - 0.0 - - - - - - -
22/09:30am 12.3 N 21 28 1018.7 - 0.0 - - - - - - -
22/09:00am 12.4 N 18 26 1018.9 - 0.0 - - - - - - -
22/08:30am 11.6 N 24 30 1019.3 - 0.0 - - - - - - -
22/08:00am 10.7 N 21 35 1019.0 - 0.0 - - - - - - -
22/07:37am 11.0 N 23 34 1019.2 - 0.0 - - - - - - -
22/07:30am 11.2 N 27 34 1018.9 - 0.0 - - - - - - -
22/07:00am 10.4 N 27 34 1019.2 - 0.0 - - - - - - -
22/06:30am 9.8 N 26 34 1019.5 - 0.0 - - - - - - -
22/06:07am 9.7 N 29 39 1019.7 - 0.0 - - - - - - -
22/06:00am 9.8 N 30 39 1019.6 - 0.0 - - - - - - -
22/05:30am 9.7 N 29 37 1020.0 - 0.0 - - - - - - -
22/05:00am 9.6 N 29 36 1020.4 - 0.0 - - - - - - -
22/04:30am 10.1 N 20 30 1021.1 - 0.0 - - - - - - -
22/04:04am 9.8 N 15 25 1022.1 - 0.0 - - - - - - -
22/04:00am 9.7 N 14 22 1022.1 - 0.0 - - - - - - -
22/03:32am 10.0 N 25 35 1022.3 - 0.0 - - - - - - -
22/03:30am 10.1 N 26 35 1022.2 - 0.0 - - - - - - -
22/03:00am 10.2 N 30 37 1022.4 - 0.0 - - - - - - -
22/02:30am 10.5 N 29 45 1023.0 - 0.0 - - - - - - -
22/02:00am 10.6 N 30 39 1023.0 - 0.0 - - - - - - -
22/01:31am 10.8 N 29 39 1023.5 - 0.0 - - - - - - -
22/01:30am 10.8 N 29 38 1023.5 - 0.0 - - - - - - -
22/01:00am 10.8 N 28 35 1024.2 - 0.0 - - - - - - -
22/12:30am 10.9 N 28 34 1024.6 - 0.0 - - - - - - -
22/12:00am 10.8 N 27 33 1025.5 - 0.0 - - - - - - -
 
Date/Time
EDT
Temp

°C
Wind Pressure Rain
since 9am
mm
Weather Cloud Vis
km
Sea
Height
m
Swell
Dir
 
Speed
knots
Gust
knots
hPa Trend Height
m
Period
s
Dir
21/11:30pm 10.9 N 25 32 1025.8 - 0.0 - - - - - - -
21/11:00pm 10.8 N 21 26 1026.3 - 0.0 - - - - - - -
21/10:30pm 10.8 N 22 28 1026.6 - 0.0 - - - - - - -
21/10:00pm 10.8 N 23 32 1027.0 - 0.0 - - - - - - -
21/09:30pm 10.7 N 23 33 1027.3 - 0.0 - - - - - - -
21/09:12pm 10.7 NNE 23 35 1027.5 - 0.0 - - - - - - -
21/09:00pm 10.7 NNE 24 33 1027.5 - 0.0 - - - - - - -
21/08:30pm 10.8 NNE 24 34 1027.6 - 0.0 - - - - - - -
21/08:15pm 10.8 NNE 24 34 1027.7 - 0.0 - - - - - - -
21/08:00pm 10.7 NNE 24 32 1027.7 - 0.0 - - - - - - -
21/07:30pm 10.6 NNE 24 33 1028.0 - 0.0 - - - - - - -
21/07:20pm 10.6 NNE 22 33 1028.1 - 0.0 - - - - - - -
21/07:00pm 10.7 NNE 25 32 1028.0 - 0.0 - - - - - - -
21/06:30pm 10.9 NNE 24 30 1028.4 - 0.0 - - - - - - -
21/06:00pm 11.0 NNE 22 30 1028.6 - 0.0 - - - - - - -
21/05:30pm 11.3 NNE 21 31 1029.0 - 0.0 - - - - - - -
21/05:00pm 11.5 NNE 23 29 1028.8 - 0.0 - - - - - - -
21/04:30pm 11.6 NNE 22 29 1029.2 - 0.0 - - - - - - -
21/04:00pm 11.9 NNE 22 29 1029.6 - 0.0 - - - - - - -
21/03:30pm 11.9 NNE 21 29 1030.1 - 0.0 - - - - - - -
21/03:24pm 11.9 NNE 20 31 1030.2 - 0.0 - - - - - - -
21/03:00pm 12.1 NNE 20 30 1030.6 - 0.0 - - - - - - -
21/02:30pm 12.2 NNE 17 27 1031.2 - 0.0 - - - - - - -
21/02:24pm 11.7 NNE 17 27 1031.3 - 0.0 - - - - - - -
21/02:00pm 12.0 NNE 19 26 1031.5 - 0.0 - - - - - - -
21/01:33pm 11.9 NNE 19 29 1031.7 - 0.0 - - - - - - -
21/01:30pm 11.9 NNE 20 29 1031.8 - 0.0 - - - - - - -
21/01:00pm 12.1 NNE 19 26 1032.1 - 0.0 - - - - - - -
21/12:30pm 11.9 NNE 18 25 1032.4 - 0.0 - - - - - - -
21/12:00pm 12.4 N 18 24 1032.5 - 0.0 - - - - - - -
21/11:30am 11.9 N 19 26 1032.7 - 0.0 - - - - - - -
21/11:00am 11.7 N 19 26 1033.1 - 0.0 - - - - - - -
21/10:30am 12.2 N 14 19 1033.6 - 0.0 - - - - - - -
21/10:00am 12.1 N 11 15 1033.7 - 0.0 - - - - - - -
21/09:30am 11.3 N 12 16 1033.6 - 0.0 - - - - - - -
21/09:00am 10.6 N 12 19 1033.7 - 0.0 - - - - - - -
21/08:30am 10.0 N 15 21 1033.6 - 0.0 - - - - - - -
21/08:00am 9.5 N 16 20 1033.5 - 0.0 - - - - - - -
21/07:30am 8.8 N 14 18 1033.5 - 0.0 - - - - - - -
21/07:00am 8.3 N 15 19 1033.4 - 0.0 - - - - - - -
21/06:30am 7.9 N 13 20 1033.4 - 0.0 - - - - - - -
21/06:00am 7.8 N 14 19 1033.1 - 0.0 - - - - - - -
21/05:30am 7.8 N 11 14 1033.1 - 0.0 - - - - - - -
21/05:00am 7.7 N 10 14 1032.9 - 0.0 - - - - - - -
21/04:30am 7.8 N 10 15 1032.8 - 0.0 - - - - - - -
21/04:00am 7.7 NNE 11 15 1032.9 - 0.0 - - - - - - -
21/03:30am 7.1 N 7 10 1033.1 - 0.0 - - - - - - -
21/03:00am 7.5 N 6 8 1033.4 - 0.0 - - - - - - -
21/02:30am 7.7 N 6 8 1033.5 - 0.0 - - - - - - -
21/02:00am 7.7 N 5 7 1033.7 - 0.0 - - - - - - -
21/01:30am 7.8 N 5 7 1033.9 - 0.0 - - - - - - -
21/01:00am 7.9 NNE 5 7 1034.1 - 0.0 - - - - - - -
21/12:30am 7.8 NE 4 6 1034.4 - 0.0 - - - - - - -
21/12:00am 7.8 CALM 0 1 1034.8 - 0.0 - - - - - - -
 
Date/Time
EDT
Temp

°C
Wind Pressure Rain
since 9am
mm
Weather Cloud Vis
km
Sea
Height
m
Swell
Dir
 
Speed
knots
Gust
knots
hPa Trend Height
m
Period
s
Dir
20/11:30pm 8.0 ENE 1 2 1035.0 - 0.0 - - - - - - -
20/11:00pm 7.9 CALM 0 1 1035.2 - 0.0 - - - - - - -
20/10:30pm 7.9 SSW 3 4 1035.4 - 0.0 - - - - - - -
20/10:00pm 7.9 SSW 4 7 1035.2 - 0.0 - - - - - - -
20/09:30pm 7.9 SSW 5 8 1035.3 - 0.0 - - - - - - -
20/09:00pm 7.8 SSW 5 8 1035.1 - 0.0 - - - - - - -
20/08:30pm 7.7 SSW 6 10 1034.9 - 0.0 - - - - - - -
20/08:00pm 7.7 SSW 9 12 1034.7 - 0.0 - - - - - - -
20/07:30pm 7.6 SSW 9 14 1034.4 - 0.0 - - - - - - -
20/07:00pm 7.9 SSW 8 13 1034.1 - 0.0 - - - - - - -
20/06:30pm 8.4 SSW 9 13 1034.0 - 0.0 - - - - - - -
20/06:00pm 9.2 SSW 8 13 1033.9 - 0.0 - - - - - - -
20/05:30pm 9.5 SSW 10 16 1033.9 - 0.0 - - - - - - -
20/05:00pm 9.8 SSW 9 14 1033.7 - 0.0 - - - - - - -
20/04:30pm 10.5 SW 11 16 1033.5 - 0.0 - - - - - - -

Other Formats:

Comma delimited format used in spreadsheet applications
http://www.bom.gov.au/fwo/IDT60701/IDT60701.95986.axf

JavaScript Object Notation format (JSON) in row-major order
http://www.bom.gov.au/fwo/IDT60701/IDT60701.95986.json